TimeAKST,TemperatureF,Dew PointF,Humidity,Sea Level PressureIn,VisibilityMPH,Wind Direction,Wind SpeedMPH,Gust SpeedMPH,PrecipitationIn,Events,Conditions,WindDirDegrees,DateUTC
12:53 AM,-18.0,-24.0,74,30.30,10.0,Calm,Calm,-,N/A,,Clear,0,2012-11-06 09:53:00
1:53 AM,-18.0,-23.1,78,30.31,10.0,Calm,Calm,-,N/A,,Clear,0,2012-11-06 10:53:00
2:53 AM,-18.9,-24.0,78,30.33,10.0,Calm,Calm,-,N/A,,Clear,0,2012-11-06 11:53:00
3:53 AM,-20.0,-25.1,78,30.34,10.0,Calm,Calm,-,N/A,,Clear,0,2012-11-06 12:53:00
4:53 AM,-22.0,-26.0,82,30.35,10.0,Calm,Calm,-,N/A,,Clear,0,2012-11-06 13:53:00
5:53 AM,-22.0,-27.0,77,30.38,10.0,Calm,Calm,-,N/A,,Clear,0,2012-11-06 14:53:00
6:53 AM,-20.9,-26.0,77,30.39,10.0,Calm,Calm,-,N/A,,Clear,0,2012-11-06 15:53:00
7:53 AM,-24.0,-27.0,86,30.40,10.0,NE,3.5,-,N/A,,Partly Cloudy,50,2012-11-06 16:53:00
8:53 AM,-22.0,-27.0,77,30.42,10.0,Calm,Calm,-,N/A,,Partly Cloudy,0,2012-11-06 17:53:00
9:53 AM,-18.9,-25.1,74,30.43,10.0,Calm,Calm,-,N/A,,Partly Cloudy,0,2012-11-06 18:53:00
10:53 AM,-16.1,-23.1,71,30.45,10.0,Calm,Calm,-,N/A,,Partly Cloudy,0,2012-11-06 19:53:00
11:53 AM,-13.0,-18.0,78,30.45,10.0,Calm,Calm,-,N/A,,Partly Cloudy,0,2012-11-06 20:53:00
12:53 PM,-9.9,-17.0,71,30.46,10.0,Calm,Calm,-,N/A,,Partly Cloudy,0,2012-11-06 21:53:00
1:53 PM,-9.0,-15.0,75,30.46,10.0,Calm,Calm,-,N/A,,Partly Cloudy,0,2012-11-06 22:53:00
2:53 PM,-9.9,-16.1,74,30.46,10.0,Calm,Calm,-,N/A,,Partly Cloudy,0,2012-11-06 23:53:00
3:53 PM,-11.9,-17.0,78,30.47,10.0,Calm,Calm,-,N/A,,Partly Cloudy,0,2012-11-07 00:53:00
4:53 PM,-14.1,-18.9,79,30.48,10.0,Calm,Calm,-,N/A,,Partly Cloudy,0,2012-11-07 01:53:00
5:53 PM,-18.9,-24.0,78,30.49,10.0,Calm,Calm,-,N/A,,Partly Cloudy,0,2012-11-07 02:53:00
6:53 PM,-18.9,-26.0,70,30.51,10.0,Calm,Calm,-,N/A,,Partly Cloudy,0,2012-11-07 03:53:00
7:53 PM,-20.0,-25.1,78,30.53,10.0,Calm,Calm,-,N/A,,Clear,0,2012-11-07 04:53:00
8:53 PM,-20.0,-25.1,78,30.53,10.0,Calm,Calm,-,N/A,,Clear,0,2012-11-07 05:53:00
9:53 PM,-20.0,-26.0,74,30.54,10.0,Calm,Calm,-,N/A,,Clear,0,2012-11-07 06:53:00
10:53 PM,-20.0,-25.1,78,30.55,6.0,Calm,Calm,-,N/A,,Clear,0,2012-11-07 07:53:00
11:53 PM,-20.9,-27.0,73,30.56,10.0,Calm,Calm,-,N/A,,Clear,0,2012-11-07 08:53:00